sensor_id;sensor_type;location;lat;lon;timestamp;P1;durP1;ratioP1;P2;durP2;ratioP2
47051;SDS011;33532;41.950;8.754;2022-12-20T13:20:39;3.72;;;2.50;;
47051;SDS011;33532;41.950;8.754;2022-12-20T13:25:34;3.53;;;2.78;;
47051;SDS011;33532;41.950;8.754;2022-12-20T13:30:40;4.63;;;2.85;;
47051;SDS011;33532;41.950;8.754;2022-12-20T13:33:17;4.07;;;2.40;;
47051;SDS011;33532;41.950;8.754;2022-12-20T13:35:54;3.00;;;2.20;;
47051;SDS011;33532;41.950;8.754;2022-12-20T13:43:59;3.42;;;2.13;;
47051;SDS011;33532;41.950;8.754;2022-12-20T13:46:40;2.65;;;2.13;;
47051;SDS011;33532;41.950;8.754;2022-12-20T13:49:11;4.60;;;2.80;;
47051;SDS011;33532;41.950;8.754;2022-12-20T13:51:41;4.43;;;4.03;;
47051;SDS011;33532;41.950;8.754;2022-12-20T13:54:07;4.97;;;3.67;;
47051;SDS011;33532;41.950;8.754;2022-12-20T13:56:43;4.93;;;3.03;;
47051;SDS011;33532;41.950;8.754;2022-12-20T13:59:24;3.63;;;2.85;;
47051;SDS011;33532;41.950;8.754;2022-12-20T14:01:52;2.85;;;2.47;;
47051;SDS011;33532;41.950;8.754;2022-12-20T14:04:21;3.63;;;2.40;;
47051;SDS011;33532;41.950;8.754;2022-12-20T14:06:56;3.72;;;3.03;;
47051;SDS011;33532;41.950;8.754;2022-12-20T14:09:27;3.15;;;2.63;;
47051;SDS011;33532;41.950;8.754;2022-12-20T14:12:01;4.97;;;3.17;;
47051;SDS011;33532;41.950;8.754;2022-12-20T14:14:35;4.30;;;3.10;;
47051;SDS011;33532;41.950;8.754;2022-12-20T14:17:21;3.72;;;2.92;;
47051;SDS011;33532;41.950;8.754;2022-12-20T14:22:31;4.65;;;3.08;;
47051;SDS011;33532;41.950;8.754;2022-12-20T14:24:58;2.63;;;2.42;;
47051;SDS011;33532;41.950;8.754;2022-12-20T14:27:23;2.90;;;2.35;;
47051;SDS011;33532;41.950;8.754;2022-12-20T14:29:51;5.40;;;3.00;;
47051;SDS011;33532;41.950;8.754;2022-12-20T14:32:18;2.90;;;2.50;;
47051;SDS011;33532;41.950;8.754;2022-12-20T14:34:43;4.38;;;2.55;;
47051;SDS011;33532;41.950;8.754;2022-12-20T14:37:16;4.45;;;3.05;;
47051;SDS011;33532;41.950;8.754;2022-12-20T14:39:55;3.08;;;2.47;;
47051;SDS011;33532;41.950;8.754;2022-12-20T14:42:26;4.13;;;2.55;;
47051;SDS011;33532;41.950;8.754;2022-12-20T14:45:01;3.85;;;2.15;;
47051;SDS011;33532;41.950;8.754;2022-12-20T14:47:47;6.18;;;2.75;;
47051;SDS011;33532;41.950;8.754;2022-12-20T14:50:32;24.23;;;4.40;;
47051;SDS011;33532;41.950;8.754;2022-12-20T14:52:58;15.68;;;3.58;;
47051;SDS011;33532;41.950;8.754;2022-12-20T14:55:31;8.57;;;3.53;;
47051;SDS011;33532;41.950;8.754;2022-12-20T14:58:01;4.55;;;2.55;;
47051;SDS011;33532;41.950;8.754;2022-12-20T15:00:30;4.55;;;2.45;;
47051;SDS011;33532;41.950;8.754;2022-12-20T15:02:59;7.45;;;2.50;;
47051;SDS011;33532;41.950;8.754;2022-12-20T15:13:26;3.83;;;2.30;;
47051;SDS011;33532;41.950;8.754;2022-12-20T15:15:52;2.83;;;2.58;;
47051;SDS011;33532;41.950;8.754;2022-12-20T15:18:18;6.70;;;3.58;;
47051;SDS011;33532;41.950;8.754;2022-12-20T15:20:45;4.15;;;2.45;;
47051;SDS011;33532;41.950;8.754;2022-12-20T15:23:17;4.88;;;2.58;;
47051;SDS011;33532;41.950;8.754;2022-12-20T15:25:44;11.43;;;2.83;;
47051;SDS011;33532;41.950;8.754;2022-12-20T15:28:18;3.88;;;2.00;;
47051;SDS011;33532;41.950;8.754;2022-12-20T15:30:48;4.47;;;1.98;;
47051;SDS011;33532;41.950;8.754;2022-12-20T15:33:15;2.97;;;2.50;;
47051;SDS011;33532;41.950;8.754;2022-12-20T15:35:45;6.57;;;2.92;;
47051;SDS011;33532;41.950;8.754;2022-12-20T15:38:15;5.13;;;2.85;;
47051;SDS011;33532;41.950;8.754;2022-12-20T15:40:46;3.95;;;2.03;;
47051;SDS011;33532;41.950;8.754;2022-12-20T15:43:16;3.58;;;2.20;;
47051;SDS011;33532;41.950;8.754;2022-12-20T15:45:44;3.83;;;2.28;;
47051;SDS011;33532;41.950;8.754;2022-12-20T15:48:15;5.13;;;2.55;;
47051;SDS011;33532;41.950;8.754;2022-12-20T15:50:43;3.72;;;2.35;;
47051;SDS011;33532;41.950;8.754;2022-12-20T15:53:14;4.97;;;2.65;;
47051;SDS011;33532;41.950;8.754;2022-12-20T15:55:40;2.38;;;2.10;;
47051;SDS011;33532;41.950;8.754;2022-12-20T15:58:05;2.45;;;2.20;;
47051;SDS011;33532;41.950;8.754;2022-12-20T16:00:32;3.00;;;2.20;;
47051;SDS011;33532;41.950;8.754;2022-12-20T16:02:57;2.78;;;2.22;;
47051;SDS011;33532;41.950;8.754;2022-12-20T16:05:25;3.50;;;2.20;;
47051;SDS011;33532;41.950;8.754;2022-12-20T16:07:50;5.55;;;2.58;;
47051;SDS011;33532;41.950;8.754;2022-12-20T16:10:16;3.33;;;2.38;;
47051;SDS011;33532;41.950;8.754;2022-12-20T16:12:41;5.60;;;3.42;;
47051;SDS011;33532;41.950;8.754;2022-12-20T16:15:25;2.83;;;2.45;;
47051;SDS011;33532;41.950;8.754;2022-12-20T16:17:51;3.38;;;2.30;;
47051;SDS011;33532;41.950;8.754;2022-12-20T16:20:16;2.60;;;2.30;;
47051;SDS011;33532;41.950;8.754;2022-12-20T16:22:42;6.80;;;3.08;;
47051;SDS011;33532;41.950;8.754;2022-12-20T16:25:13;6.72;;;2.67;;
47051;SDS011;33532;41.950;8.754;2022-12-20T16:27:49;2.65;;;1.98;;
47051;SDS011;33532;41.950;8.754;2022-12-20T16:30:14;2.67;;;1.90;;
47051;SDS011;33532;41.950;8.754;2022-12-20T16:32:40;3.00;;;2.40;;
47051;SDS011;33532;41.950;8.754;2022-12-20T16:35:07;3.10;;;2.42;;
47051;SDS011;33532;41.950;8.754;2022-12-20T16:37:48;4.40;;;2.78;;
47051;SDS011;33532;41.950;8.754;2022-12-20T16:40:14;3.50;;;2.35;;
47051;SDS011;33532;41.950;8.754;2022-12-20T16:42:39;3.92;;;2.53;;
47051;SDS011;33532;41.950;8.754;2022-12-20T16:45:05;4.03;;;2.75;;
47051;SDS011;33532;41.950;8.754;2022-12-20T16:47:31;3.42;;;2.60;;
47051;SDS011;33532;41.950;8.754;2022-12-20T16:49:56;3.33;;;2.30;;
47051;SDS011;33532;41.950;8.754;2022-12-20T16:52:22;4.50;;;2.72;;
47051;SDS011;33532;41.950;8.754;2022-12-20T16:54:47;3.42;;;3.13;;
47051;SDS011;33532;41.950;8.754;2022-12-20T16:57:13;2.92;;;2.65;;
47051;SDS011;33532;41.950;8.754;2022-12-20T16:59:39;3.25;;;2.60;;
47051;SDS011;33532;41.950;8.754;2022-12-20T17:02:09;4.28;;;2.72;;
47051;SDS011;33532;41.950;8.754;2022-12-20T17:04:44;3.50;;;2.90;;
47051;SDS011;33532;41.950;8.754;2022-12-20T17:07:09;3.60;;;2.88;;
47051;SDS011;33532;41.950;8.754;2022-12-20T17:09:34;2.70;;;2.47;;
47051;SDS011;33532;41.950;8.754;2022-12-20T17:12:00;4.60;;;3.10;;
47051;SDS011;33532;41.950;8.754;2022-12-20T17:14:25;3.58;;;2.58;;
47051;SDS011;33532;41.950;8.754;2022-12-20T17:16:51;4.18;;;3.60;;
47051;SDS011;33532;41.950;8.754;2022-12-20T17:19:16;3.75;;;2.70;;
47051;SDS011;33532;41.950;8.754;2022-12-20T17:21:42;4.25;;;3.13;;
47051;SDS011;33532;41.950;8.754;2022-12-20T17:24:15;4.25;;;2.90;;
47051;SDS011;33532;41.950;8.754;2022-12-20T17:26:42;3.78;;;2.70;;
47051;SDS011;33532;41.950;8.754;2022-12-20T17:29:07;4.03;;;3.08;;
47051;SDS011;33532;41.950;8.754;2022-12-20T17:31:35;5.72;;;3.55;;
47051;SDS011;33532;41.950;8.754;2022-12-20T17:34:08;5.35;;;3.08;;
47051;SDS011;33532;41.950;8.754;2022-12-20T17:36:41;3.50;;;2.60;;
47051;SDS011;33532;41.950;8.754;2022-12-20T17:39:06;3.25;;;2.58;;
47051;SDS011;33532;41.950;8.754;2022-12-20T17:41:32;3.00;;;2.75;;
47051;SDS011;33532;41.950;8.754;2022-12-20T17:43:58;3.13;;;2.65;;
47051;SDS011;33532;41.950;8.754;2022-12-20T17:46:24;4.65;;;2.75;;
47051;SDS011;33532;41.950;8.754;2022-12-20T17:48:50;5.68;;;3.72;;
47051;SDS011;33532;41.950;8.754;2022-12-20T17:51:17;3.70;;;3.40;;
47051;SDS011;33532;41.950;8.754;2022-12-20T17:53:44;6.60;;;4.13;;
47051;SDS011;33532;41.950;8.754;2022-12-20T17:56:14;6.65;;;4.63;;
47051;SDS011;33532;41.950;8.754;2022-12-20T17:58:41;5.88;;;4.35;;
47051;SDS011;33532;41.950;8.754;2022-12-20T18:01:15;6.95;;;5.32;;
47051;SDS011;33532;41.950;8.754;2022-12-20T18:03:43;7.65;;;5.38;;
47051;SDS011;33532;41.950;8.754;2022-12-20T18:06:09;5.68;;;5.05;;
47051;SDS011;33532;41.950;8.754;2022-12-20T18:08:34;6.03;;;5.28;;
47051;SDS011;33532;41.950;8.754;2022-12-20T18:11:00;5.88;;;5.28;;
47051;SDS011;33532;41.950;8.754;2022-12-20T18:13:26;5.65;;;5.07;;
47051;SDS011;33532;41.950;8.754;2022-12-20T18:15:51;6.78;;;4.93;;
47051;SDS011;33532;41.950;8.754;2022-12-20T18:18:16;6.07;;;5.47;;
47051;SDS011;33532;41.950;8.754;2022-12-20T18:20:42;7.05;;;5.43;;
47051;SDS011;33532;41.950;8.754;2022-12-20T18:26:30;6.68;;;5.03;;
47051;SDS011;33532;41.950;8.754;2022-12-20T18:28:57;6.13;;;5.45;;
47051;SDS011;33532;41.950;8.754;2022-12-20T18:31:24;7.75;;;5.55;;
47051;SDS011;33532;41.950;8.754;2022-12-20T18:33:51;6.43;;;5.82;;
47051;SDS011;33532;41.950;8.754;2022-12-20T18:36:18;7.35;;;6.63;;
47051;SDS011;33532;41.950;8.754;2022-12-20T18:38:46;6.47;;;5.63;;
47051;SDS011;33532;41.950;8.754;2022-12-20T18:41:16;6.93;;;6.22;;
47051;SDS011;33532;41.950;8.754;2022-12-20T18:43:48;6.93;;;6.28;;
47051;SDS011;33532;41.950;8.754;2022-12-20T18:46:15;6.53;;;5.68;;
47051;SDS011;33532;41.950;8.754;2022-12-20T18:48:42;6.22;;;5.63;;
47051;SDS011;33532;41.950;8.754;2022-12-20T18:51:13;7.45;;;6.18;;
47051;SDS011;33532;41.950;8.754;2022-12-20T18:53:40;6.38;;;5.75;;
47051;SDS011;33532;41.950;8.754;2022-12-20T18:56:11;6.03;;;5.45;;
47051;SDS011;33532;41.950;8.754;2022-12-20T18:58:41;6.03;;;5.43;;
47051;SDS011;33532;41.950;8.754;2022-12-20T19:01:15;7.70;;;7.00;;
47051;SDS011;33532;41.950;8.754;2022-12-20T19:03:42;10.73;;;5.80;;
47051;SDS011;33532;41.950;8.754;2022-12-20T19:06:08;6.95;;;6.25;;
47051;SDS011;33532;41.950;8.754;2022-12-20T19:08:34;6.43;;;5.43;;
47051;SDS011;33532;41.950;8.754;2022-12-20T19:11:05;8.60;;;6.35;;
47051;SDS011;33532;41.950;8.754;2022-12-20T19:13:31;8.73;;;6.22;;
47051;SDS011;33532;41.950;8.754;2022-12-20T19:16:00;8.52;;;6.47;;
47051;SDS011;33532;41.950;8.754;2022-12-20T19:18:30;6.95;;;6.10;;
47051;SDS011;33532;41.950;8.754;2022-12-20T19:21:06;8.95;;;6.82;;
47051;SDS011;33532;41.950;8.754;2022-12-20T19:23:36;8.50;;;6.85;;
47051;SDS011;33532;41.950;8.754;2022-12-20T19:26:03;7.03;;;5.28;;
47051;SDS011;33532;41.950;8.754;2022-12-20T19:28:30;7.13;;;5.85;;
47051;SDS011;33532;41.950;8.754;2022-12-20T19:30:57;6.25;;;5.63;;
47051;SDS011;33532;41.950;8.754;2022-12-20T19:33:22;7.55;;;5.75;;
47051;SDS011;33532;41.950;8.754;2022-12-20T19:35:49;7.25;;;6.05;;
47051;SDS011;33532;41.950;8.754;2022-12-20T19:38:15;6.05;;;5.45;;
47051;SDS011;33532;41.950;8.754;2022-12-20T19:40:40;7.35;;;5.50;;
47051;SDS011;33532;41.950;8.754;2022-12-20T19:43:06;5.53;;;5.03;;
47051;SDS011;33532;41.950;8.754;2022-12-20T19:45:35;6.68;;;5.72;;
47051;SDS011;33532;41.950;8.754;2022-12-20T19:48:01;7.95;;;4.90;;
47051;SDS011;33532;41.950;8.754;2022-12-20T19:50:27;6.35;;;5.75;;
47051;SDS011;33532;41.950;8.754;2022-12-20T19:52:52;7.68;;;6.35;;
47051;SDS011;33532;41.950;8.754;2022-12-20T19:55:18;6.57;;;5.30;;
47051;SDS011;33532;41.950;8.754;2022-12-20T19:57:43;5.95;;;4.95;;
47051;SDS011;33532;41.950;8.754;2022-12-20T20:00:09;5.70;;;5.20;;
47051;SDS011;33532;41.950;8.754;2022-12-20T20:02:35;6.88;;;6.25;;
47051;SDS011;33532;41.950;8.754;2022-12-20T20:05:00;6.85;;;5.72;;
47051;SDS011;33532;41.950;8.754;2022-12-20T20:07:26;6.72;;;6.03;;
47051;SDS011;33532;41.950;8.754;2022-12-20T20:09:52;6.97;;;5.80;;
47051;SDS011;33532;41.950;8.754;2022-12-20T20:12:17;7.00;;;5.75;;
47051;SDS011;33532;41.950;8.754;2022-12-20T20:14:42;7.10;;;6.05;;
47051;SDS011;33532;41.950;8.754;2022-12-20T20:17:08;7.60;;;6.15;;
47051;SDS011;33532;41.950;8.754;2022-12-20T20:19:34;6.72;;;5.60;;
47051;SDS011;33532;41.950;8.754;2022-12-20T20:21:59;9.07;;;6.05;;
47051;SDS011;33532;41.950;8.754;2022-12-20T20:24:25;8.23;;;5.50;;
47051;SDS011;33532;41.950;8.754;2022-12-20T20:26:50;6.65;;;5.70;;
47051;SDS011;33532;41.950;8.754;2022-12-20T20:29:15;6.95;;;6.28;;
47051;SDS011;33532;41.950;8.754;2022-12-20T20:31:41;6.25;;;5.65;;
47051;SDS011;33532;41.950;8.754;2022-12-20T20:34:06;6.43;;;5.45;;
47051;SDS011;33532;41.950;8.754;2022-12-20T20:36:33;7.95;;;5.88;;
47051;SDS011;33532;41.950;8.754;2022-12-20T20:38:59;10.35;;;6.38;;
47051;SDS011;33532;41.950;8.754;2022-12-20T20:41:24;7.68;;;5.63;;
47051;SDS011;33532;41.950;8.754;2022-12-20T20:43:50;5.40;;;4.90;;
47051;SDS011;33532;41.950;8.754;2022-12-20T20:46:15;6.10;;;5.50;;
47051;SDS011;33532;41.950;8.754;2022-12-20T20:48:41;7.47;;;6.78;;
47051;SDS011;33532;41.950;8.754;2022-12-20T20:51:07;6.43;;;5.20;;
47051;SDS011;33532;41.950;8.754;2022-12-20T20:53:33;6.78;;;5.18;;
47051;SDS011;33532;41.950;8.754;2022-12-20T20:56:00;6.13;;;5.53;;
47051;SDS011;33532;41.950;8.754;2022-12-20T20:58:26;6.13;;;5.45;;
47051;SDS011;33532;41.950;8.754;2022-12-20T21:00:52;5.82;;;5.03;;
47051;SDS011;33532;41.950;8.754;2022-12-20T21:03:21;7.93;;;5.45;;
47051;SDS011;33532;41.950;8.754;2022-12-20T21:05:46;5.97;;;5.03;;
47051;SDS011;33532;41.950;8.754;2022-12-20T21:08:12;6.32;;;5.72;;
47051;SDS011;33532;41.950;8.754;2022-12-20T21:10:39;6.18;;;5.45;;
47051;SDS011;33532;41.950;8.754;2022-12-20T21:13:05;6.28;;;5.20;;
47051;SDS011;33532;41.950;8.754;2022-12-20T21:15:31;6.68;;;5.13;;
47051;SDS011;33532;41.950;8.754;2022-12-20T21:17:57;4.97;;;4.50;;
47051;SDS011;33532;41.950;8.754;2022-12-20T21:20:23;4.57;;;4.18;;
47051;SDS011;33532;41.950;8.754;2022-12-20T21:22:49;7.30;;;5.30;;
47051;SDS011;33532;41.950;8.754;2022-12-20T21:25:14;5.43;;;4.85;;
47051;SDS011;33532;41.950;8.754;2022-12-20T21:27:40;5.30;;;4.80;;
47051;SDS011;33532;41.950;8.754;2022-12-20T21:30:05;5.78;;;4.90;;
47051;SDS011;33532;41.950;8.754;2022-12-20T21:32:31;4.43;;;4.03;;
47051;SDS011;33532;41.950;8.754;2022-12-20T21:34:56;4.95;;;4.43;;
47051;SDS011;33532;41.950;8.754;2022-12-20T21:37:23;4.65;;;4.20;;
47051;SDS011;33532;41.950;8.754;2022-12-20T21:39:49;5.13;;;4.63;;
47051;SDS011;33532;41.950;8.754;2022-12-20T21:42:15;5.03;;;4.30;;
